Latest Coastal Weather Observations for Taree Airport

IDN60701

Issued at 9:55 am EST Wednesday 3 September 2014 (issued every 10 minutes, with the page automatically refreshed every 10 minutes)

About coastal observations | Map of coastal stations | Coastal observations for NSW | Marine services | Other Formats
Station Details ID: 060141 Name: TAREE AIRPORT AWS Lat: -31.89 Lon: 152.51 Height: 8.0 m
Data from the previous 72 hours. | See also: Recent months at Taree Airport
Date/Time
EST
Temp

°C
Wind Pressure Rain
since 9am
mm
Weather Cloud Vis
km
Sea
Height
m
Swell
Dir
 
Speed
knots
Gust
knots
hPa Trend Height
m
Period
s
Dir
03/09:30am 13.5 WSW 22 35 1009.3 - 0.0 - Cloudy - - - - -
03/09:00am 13.3 WSW 20 30 1009.2 - 4.2 - Cloudy - - - - -
03/08:31am 12.6 WSW 20 30 1009.3 - 4.2 - Partly cloudy - - - - -
03/08:30am 12.6 WSW 21 30 1009.4 - 4.2 - Partly cloudy - - - - -
03/08:00am 12.3 WSW 20 31 1009.0 - 4.2 - Partly cloudy - - - - -
03/07:32am 11.9 WSW 18 28 1008.8 - 4.2 - Partly cloudy - - - - -
03/07:30am 11.8 WSW 19 28 1008.8 - 4.2 - Partly cloudy - - - - -
03/07:12am 11.1 WSW 15 25 1008.6 - 4.2 - Partly cloudy - - - - -
03/07:00am 10.9 WSW 17 23 1008.7 - 4.2 - Partly cloudy - - - - -
03/06:37am 10.7 W 15 26 1008.6 - 4.2 - Partly cloudy - - - - -
03/06:30am 10.5 W 16 25 1008.6 - 4.2 - Partly cloudy - - - - -
03/06:00am 10.5 W 15 25 1008.4 - 4.2 - Cloudy - - - - -
03/05:30am 11.4 W 18 29 1007.9 - 4.2 - Cloudy - - - - -
03/05:00am 11.1 W 16 28 1007.8 - 4.2 - Partly cloudy - - - - -
03/04:32am 11.3 W 17 27 1007.2 - 4.2 - Cloudy - - - - -
03/04:30am 11.2 W 17 25 1007.2 - 4.2 - Cloudy - - - - -
03/04:01am 10.6 W 15 25 1007.1 - 4.2 - Cloudy - - - - -
03/04:00am 10.6 W 16 25 1007.1 - 4.2 - Cloudy - - - - -
03/03:39am 10.4 W 16 26 1007.1 - 4.2 - Cloudy - - - - -
03/03:30am 10.4 W 18 27 1007.0 - 4.2 - Cloudy - - - - -
03/03:09am 10.2 W 16 26 1007.2 - 4.2 - Cloudy - - - - -
03/03:00am 10.1 W 16 23 1007.3 - 4.2 - Cloudy - - - - -
03/02:37am 10.0 W 15 25 1007.1 - 4.2 - Cloudy - - - - -
03/02:30am 10.1 W 17 25 1007.3 - 4.2 - Cloudy - - - - -
03/02:01am 10.2 W 16 28 1008.3 - 4.2 - Cloudy - - - - -
03/02:00am 10.2 W 15 21 1008.3 - 4.2 - Partly cloudy - - - - -
03/01:30am 10.5 WSW 15 26 1009.0 - 4.2 - Partly cloudy - - - - -
03/01:00am 11.5 SW 21 31 1009.0 - 4.2 - Partly cloudy - - - - -
03/12:52am 12.2 WSW 16 26 1008.7 - 4.2 - Cloudy - - - - -
03/12:30am 12.7 WSW 14 21 1008.5 - 4.2 - Cloudy - - - - -
03/12:00am 12.9 W 12 18 1008.7 - 4.2 - Cloudy - - - - -
 
Date/Time
EST
Temp

°C
Wind Pressure Rain
since 9am
mm
Weather Cloud Vis
km
Sea
Height
m
Swell
Dir
 
Speed
knots
Gust
knots
hPa Trend Height
m
Period
s
Dir
02/11:30pm 12.7 W 12 21 1008.8 - 4.2 - Cloudy - - - - -
02/11:00pm 12.6 W 9 14 1008.9 - 4.2 - Partly cloudy - - - - -
02/10:30pm 11.3 W 7 9 1008.9 - 4.2 - - - - - - -
02/10:00pm 11.9 W 7 12 1009.1 - 4.2 - - - - - - -
02/09:30pm 11.8 W 7 10 1009.2 - 4.2 - - - - - - -
02/09:00pm 11.3 W 7 9 1009.2 - 4.2 - - - - - - -
02/08:30pm 12.0 WSW 7 10 1009.6 - 4.2 - Partly cloudy - - - - -
02/08:00pm 12.3 SSW 11 18 1009.8 - 4.2 - Partly cloudy - - - - -
02/07:30pm 10.6 SSW 7 8 1009.2 - 4.2 - Partly cloudy - - - - -
02/07:00pm 11.7 NW 5 6 1008.5 - 4.2 - - - - - - -
02/06:30pm 12.1 - 3 4 1008.4 - 4.2 - - - - - - -
02/06:00pm 13.3 S 12 15 1008.2 - 4.2 - Cloudy - - - - -
02/05:30pm 14.9 WSW 6 7 1007.8 - 4.2 - Partly cloudy - - - - -
02/05:00pm 15.7 W 6 9 1007.4 - 4.2 - - - - - - -
02/04:30pm 15.7 WSW 5 7 1007.1 - 4.2 - - - - - - -
02/04:00pm 14.4 W 6 8 1007.1 - 4.2 - Partly cloudy - - - - -
02/03:30pm 14.3 SW 8 10 1007.3 - 4.2 - - - - - - -
02/03:00pm 13.2 WSW 9 13 1007.5 - 4.2 Recent precip. Cloudy - - - - -
02/02:30pm 12.3 SSW 7 10 1007.5 - 4.2 - Partly cloudy - - - - -
02/02:00pm 11.1 WSW 13 20 1007.9 - 3.8 - Partly cloudy - - - - -
02/01:43pm 13.4 SW 27 39 1006.5 - 1.0 - Partly cloudy - - - - -
02/01:30pm 18.8 S 6 9 1004.5 - 0.0 - Partly cloudy - - - - -
02/01:00pm 18.5 SE 5 7 1004.9 - 0.0 - Partly cloudy - - - - -
02/12:30pm 18.3 E 6 7 1005.8 - 0.0 - - - - - - -
02/12:00pm 16.4 ENE 1 5 1006.8 - 0.0 - Cloudy - - - - -
02/11:30am 15.3 CALM 0 0 1007.2 - 0.0 - - - - - - -
02/11:00am 14.7 N 3 3 1008.4 - 0.0 - - - - - - -
02/10:30am 13.9 SSW 5 6 1008.9 - 0.0 - - - - - - -
02/10:00am 14.3 W 5 6 1009.6 - 0.0 - - - - - - -
02/09:30am 13.7 WSW 6 8 1010.0 - 0.0 - - - - - - -
02/09:00am 13.4 W 7 9 1009.6 - 0.2 - Cloudy - - - - -
02/08:30am 13.1 WSW 6 7 1009.6 - 0.2 - - - - - - -
02/08:00am 12.7 SW 6 8 1009.4 - 0.2 - Cloudy - - - - -
02/07:30am 12.4 W 4 6 1009.4 - 0.2 - - - - - - -
02/07:00am 12.2 WSW 3 5 1008.8 - 0.2 - - - - - - -
02/06:30am 12.0 WNW 2 4 1008.9 - 0.2 - - - - - - -
02/06:00am 11.8 W 2 4 1008.9 - 0.2 - Cloudy - - - - -
02/05:30am 11.1 N 2 4 1009.1 - 0.2 - - - - - - -
02/05:00am 11.5 CALM 0 0 1009.0 - 0.2 - - - - - - -
02/04:30am 11.7 W 4 6 1009.2 - 0.2 - - - - - - -
02/04:00am 11.4 NNW 4 5 1009.4 - 0.2 - - - - - - -
02/03:30am 11.5 CALM 0 0 1009.4 - 0.2 - - - - - - -
02/03:00am 11.3 SSE 1 4 1010.0 - 0.2 - Cloudy - - - - -
02/02:30am 11.5 WNW 1 3 1010.2 - 0.2 - - - - - - -
02/02:00am 12.2 CALM 0 0 1010.7 - 0.2 - - - - - - -
02/01:30am 12.4 NW 2 4 1011.1 - 0.2 - - - - - - -
02/01:00am 12.1 CALM 0 0 1011.5 - 0.2 - - - - - - -
02/12:30am 12.2 CALM 0 0 1011.9 - 0.2 - - - - - - -
02/12:00am 12.7 CALM 0 0 1012.4 - 0.2 - Cloudy - - - - -
 
Date/Time
EST
Temp

°C
Wind Pressure Rain
since 9am
mm
Weather Cloud Vis
km
Sea
Height
m
Swell
Dir
 
Speed
knots
Gust
knots
hPa Trend Height
m
Period
s
Dir
01/11:30pm 12.9 CALM 0 0 1012.5 - 0.2 - - - - - - -
01/11:00pm 13.0 CALM 0 0 1012.6 - 0.2 - - - - - - -
01/10:30pm 13.6 CALM 0 0 1012.9 - 0.2 - - - - - - -
01/10:00pm 13.6 WSW 2 5 1013.1 - 0.2 - - - - - - -
01/09:30pm 14.1 CALM 0 0 1013.2 - 0.2 - - - - - - -
01/09:00pm 13.8 CALM 0 0 1013.2 - 0.2 - Partly cloudy - - - - -
01/08:30pm 14.8 CALM 0 0 1013.4 - 0.2 - - - - - - -
01/08:00pm 15.8 NNW 1 3 1013.6 - 0.2 - - - - - - -
01/07:30pm 17.1 NNE 4 6 1013.3 - 0.2 - - - - - - -
01/07:00pm 15.9 NE 5 7 1013.1 - 0.2 - - - - - - -
01/06:30pm 16.9 ENE 5 6 1013.0 - 0.2 - - - - - - -
01/06:00pm 17.4 ENE 6 7 1012.9 - 0.2 - Cloudy - - - - -
01/05:30pm 18.4 ENE 8 11 1012.9 - 0.2 - - - - - - -
01/05:00pm 19.3 E 8 13 1012.5 - 0.2 - - - - - - -
01/04:30pm 20.1 ENE 9 14 1012.4 - 0.2 - - - - - - -
01/04:00pm 20.3 ENE 12 15 1012.1 - 0.2 - - - - - - -
01/03:30pm 20.9 E 11 16 1012.3 - 0.2 - - - - - - -
01/03:00pm 21.5 E 9 13 1012.5 - 0.2 - - - - - - -
01/02:30pm 21.8 E 9 12 1012.7 - 0.2 - - - - - - -
01/02:00pm 23.0 SSE 7 10 1013.1 - 0.2 - - - - - - -
01/01:30pm 22.7 ESE 2 4 1013.4 - 0.2 - - - - - - -
01/01:00pm 23.0 W 10 12 1013.9 - 0.2 - Partly cloudy - - - - -
01/12:30pm 22.7 SW 6 10 1014.4 - 0.2 - - - - - - -
01/12:00pm 22.5 S 5 7 1015.0 - 0.2 - - - - - - -
01/11:30am 20.9 S 5 8 1015.6 - 0.2 - - - - - - -
01/11:00am 20.6 SSE 3 6 1016.2 - 0.2 - - - - - - -
01/10:30am 20.0 S 3 5 1016.6 - 0.2 - - - - - - -
01/10:00am 19.0 SE 2 4 1017.0 - 0.0 - - - - - - -
01/09:30am 17.1 SSW 1 4 1017.3 - 0.0 - - - - - - -
01/09:00am 15.7 W 2 4 1017.7 - 0.0 - - - - - - -
01/08:30am 13.9 W 5 6 1017.8 - 0.0 - - - - - - -
01/08:00am 12.5 W 6 7 1017.8 - 0.0 - - - - - - -
01/07:30am 10.8 WNW 4 6 1017.8 - 0.0 - - - - - - -
01/07:00am 9.6 WNW 1 4 1017.7 - 0.0 - - - - - - -
01/06:30am 8.1 CALM 0 0 1017.3 - 0.0 - - - - - - -
01/06:00am 7.7 CALM 0 0 1017.2 - 0.0 - - - - - - -
01/05:30am 7.5 CALM 0 0 1017.0 - 0.0 - - - - - - -
01/05:00am 8.9 NW 4 4 1016.9 - 0.0 - - - - - - -
01/04:30am 8.6 W 1 4 1016.6 - 0.0 - - - - - - -
01/04:00am 9.4 CALM 0 0 1016.8 - 0.0 - - - - - - -
01/03:30am 9.6 NW 2 4 1016.7 - 0.0 - - - - - - -
01/03:00am 10.3 W 3 5 1016.7 - 0.0 - - - - - - -
01/02:30am 10.4 W 3 4 1017.0 - 0.0 - - - - - - -
01/02:00am 9.9 N 1 3 1017.3 - 0.0 - - - - - - -
01/01:30am 10.8 CALM 0 3 1017.5 - 0.0 - - - - - - -
01/01:00am 11.2 WNW 4 6 1017.7 - 0.0 - Partly cloudy - - - - -
01/12:30am 11.5 WNW 4 5 1017.9 - 0.0 - Partly cloudy - - - - -
01/12:00am 11.2 NNW 4 5 1018.0 - 0.0 - Mostly clear - - - - -
 
Date/Time
EST
Temp

°C
Wind Pressure Rain
since 9am
mm
Weather Cloud Vis
km
Sea
Height
m
Swell
Dir
 
Speed
knots
Gust
knots
hPa Trend Height
m
Period
s
Dir
31/11:30pm 11.4 NW 4 5 1018.1 - 0.0 - Partly cloudy - - - - -
31/11:00pm 11.9 W 1 4 1018.1 - 0.0 - - - - - - -
31/10:30pm 11.9 CALM 0 0 1018.1 - 0.0 - - - - - - -
31/10:00pm 11.8 WSW 4 6 1018.4 - 0.0 - - - - - - -
31/09:30pm 12.8 NW 6 7 1018.5 - 0.0 - - - - - - -
31/09:00pm 13.1 NW 4 5 1018.5 - 0.0 - - - - - - -
31/08:30pm 13.3 NNW 5 6 1018.4 - 0.0 - - - - - - -
31/08:00pm 12.8 N 4 5 1018.2 - 0.0 - - - - - - -
31/07:30pm 14.3 CALM 0 0 1018.1 - 0.0 - - - - - - -
31/07:00pm 14.8 SSE 1 4 1017.8 - 0.0 - - - - - - -
31/06:30pm 15.4 S 5 7 1017.5 - 0.0 - - - - - - -
31/06:00pm 16.1 S 7 8 1017.2 - 0.0 - - - - - - -
31/05:30pm 16.8 SE 7 10 1017.0 - 0.0 - - - - - - -
31/05:00pm 17.7 SSE 9 12 1016.8 - 0.0 - - - - - - -
31/04:30pm 18.0 SE 11 15 1016.7 - 0.0 - - - - - - -
31/04:00pm 18.1 SE 8 10 1016.6 - 0.0 - - - - - - -
31/03:30pm 18.7 SE 9 13 1016.6 - 0.0 - Partly cloudy - - - - -
31/03:00pm 20.6 S 8 10 1016.7 - 0.0 - Mostly clear - - - - -
31/02:30pm 20.5 SSW 10 13 1016.8 - 0.0 - Partly cloudy - - - - -
31/02:00pm 20.9 WSW 7 11 1017.0 - 0.0 - Partly cloudy - - - - -
31/01:30pm 19.4 SW 11 16 1017.2 - 0.0 - Partly cloudy - - - - -
31/01:00pm 20.2 S 8 11 1017.4 - 0.0 - Partly cloudy - - - - -
31/12:30pm 19.5 SW 11 16 1017.8 - 0.0 - Partly cloudy - - - - -
31/12:00pm 20.0 WSW 10 14 1018.0 - 0.0 - Partly cloudy - - - - -
31/11:30am 18.8 SW 8 12 1018.5 - 0.0 - Partly cloudy - - - - -
31/11:00am 18.5 SW 9 12 1019.0 - 0.0 - Partly cloudy - - - - -
31/10:30am 18.1 SW 9 14 1019.3 - 0.0 - Cloudy - - - - -
31/10:00am 18.1 WSW 9 11 1019.5 - 0.0 - Partly cloudy - - - - -

Other Formats:

Comma delimited format used in spreadsheet applications
http://www.bom.gov.au/fwo/IDN60701/IDN60701.95784.axf

JavaScript Object Notation format (JSON) in row-major order
http://www.bom.gov.au/fwo/IDN60701/IDN60701.95784.json